sensor_id;sensor_type;location;lat;lon;timestamp;pressure;altitude;pressure_sealevel;temperature;humidity
9935;BME280;5006;41.828;23.478;2022-07-03T00:00:48;90869.94;;;19.74;nan
9935;BME280;5006;41.828;23.478;2022-07-03T00:01:55;90873.41;;;19.74;nan
9935;BME280;5006;41.828;23.478;2022-07-03T00:03:01;90869.44;;;19.47;nan
9935;BME280;5006;41.828;23.478;2022-07-03T00:04:06;90871.75;;;19.49;nan
9935;BME280;5006;41.828;23.478;2022-07-03T00:05:11;90871.78;;;19.33;nan
9935;BME280;5006;41.828;23.478;2022-07-03T00:06:17;90870.91;;;19.68;nan
9935;BME280;5006;41.828;23.478;2022-07-03T00:07:23;90879.19;;;19.76;nan
9935;BME280;5006;41.828;23.478;2022-07-03T00:08:29;90878.84;;;19.74;nan
9935;BME280;5006;41.828;23.478;2022-07-03T00:09:34;90872.06;;;19.82;nan
9935;BME280;5006;41.828;23.478;2022-07-03T00:10:39;90877.00;;;19.72;nan
9935;BME280;5006;41.828;23.478;2022-07-03T00:11:44;90877.28;;;19.89;nan
9935;BME280;5006;41.828;23.478;2022-07-03T00:12:50;90872.66;;;19.58;nan
9935;BME280;5006;41.828;23.478;2022-07-03T00:13:55;90868.38;;;19.45;nan
9935;BME280;5006;41.828;23.478;2022-07-03T00:15:01;90873.72;;;19.32;nan
9935;BME280;5006;41.828;23.478;2022-07-03T00:16:07;90874.97;;;19.60;nan
9935;BME280;5006;41.828;23.478;2022-07-03T00:17:13;90875.31;;;19.62;nan
9935;BME280;5006;41.828;23.478;2022-07-03T00:18:19;90874.19;;;19.59;nan
9935;BME280;5006;41.828;23.478;2022-07-03T00:19:24;90875.38;;;19.58;nan
9935;BME280;5006;41.828;23.478;2022-07-03T00:20:30;90875.88;;;19.69;nan
9935;BME280;5006;41.828;23.478;2022-07-03T00:21:44;90870.78;;;19.71;nan
9935;BME280;5006;41.828;23.478;2022-07-03T00:22:51;90876.56;;;19.73;nan
9935;BME280;5006;41.828;23.478;2022-07-03T00:24:00;90874.53;;;19.77;nan
9935;BME280;5006;41.828;23.478;2022-07-03T00:25:10;90879.19;;;19.76;nan
9935;BME280;5006;41.828;23.478;2022-07-03T00:26:17;90876.47;;;19.76;nan
9935;BME280;5006;41.828;23.478;2022-07-03T00:27:25;90874.44;;;19.80;nan
9935;BME280;5006;41.828;23.478;2022-07-03T00:28:31;90871.00;;;19.92;nan
9935;BME280;5006;41.828;23.478;2022-07-03T00:29:37;90874.06;;;19.94;nan
9935;BME280;5006;41.828;23.478;2022-07-03T00:30:45;90866.72;;;19.91;nan
9935;BME280;5006;41.828;23.478;2022-07-03T00:31:52;90867.69;;;19.85;nan
9935;BME280;5006;41.828;23.478;2022-07-03T00:33:01;90863.19;;;19.78;nan
9935;BME280;5006;41.828;23.478;2022-07-03T00:34:08;90866.28;;;19.65;nan
9935;BME280;5006;41.828;23.478;2022-07-03T00:35:17;90867.91;;;19.46;nan
9935;BME280;5006;41.828;23.478;2022-07-03T00:36:24;90868.59;;;19.34;nan
9935;BME280;5006;41.828;23.478;2022-07-03T00:37:30;90860.88;;;19.17;nan
9935;BME280;5006;41.828;23.478;2022-07-03T00:38:36;90865.47;;;19.04;nan
9935;BME280;5006;41.828;23.478;2022-07-03T00:39:43;90860.72;;;19.24;nan
9935;BME280;5006;41.828;23.478;2022-07-03T00:40:49;90857.78;;;19.15;nan
9935;BME280;5006;41.828;23.478;2022-07-03T00:42:00;90862.41;;;19.50;nan
9935;BME280;5006;41.828;23.478;2022-07-03T00:43:07;90859.00;;;19.46;nan
9935;BME280;5006;41.828;23.478;2022-07-03T00:44:14;90856.66;;;19.32;nan
9935;BME280;5006;41.828;23.478;2022-07-03T00:45:20;90853.50;;;19.17;nan
9935;BME280;5006;41.828;23.478;2022-07-03T00:46:27;90851.56;;;19.18;nan
9935;BME280;5006;41.828;23.478;2022-07-03T00:47:35;90848.66;;;19.25;nan
9935;BME280;5006;41.828;23.478;2022-07-03T00:48:44;90847.44;;;19.26;nan
9935;BME280;5006;41.828;23.478;2022-07-03T00:49:53;90847.78;;;19.28;nan
9935;BME280;5006;41.828;23.478;2022-07-03T00:50:59;90847.78;;;19.28;nan
9935;BME280;5006;41.828;23.478;2022-07-03T00:52:05;90855.78;;;19.35;nan
9935;BME280;5006;41.828;23.478;2022-07-03T00:53:12;90844.81;;;19.38;nan
9935;BME280;5006;41.828;23.478;2022-07-03T00:54:19;90853.00;;;19.22;nan
9935;BME280;5006;41.828;23.478;2022-07-03T00:55:27;90856.81;;;19.25;nan
9935;BME280;5006;41.828;23.478;2022-07-03T00:56:32;90853.41;;;19.21;nan
9935;BME280;5006;41.828;23.478;2022-07-03T00:57:44;90848.91;;;19.30;nan
9935;BME280;5006;41.828;23.478;2022-07-03T00:58:50;90844.13;;;19.34;nan
9935;BME280;5006;41.828;23.478;2022-07-03T00:59:57;90848.63;;;19.41;nan
9935;BME280;5006;41.828;23.478;2022-07-03T01:01:02;90849.69;;;19.31;nan
9935;BME280;5006;41.828;23.478;2022-07-03T01:02:15;90853.25;;;19.44;nan
9935;BME280;5006;41.828;23.478;2022-07-03T01:03:21;90853.47;;;19.33;nan
9935;BME280;5006;41.828;23.478;2022-07-03T01:04:43;90847.44;;;19.26;nan
9935;BME280;5006;41.828;23.478;2022-07-03T01:05:52;90852.22;;;19.22;nan
9935;BME280;5006;41.828;23.478;2022-07-03T01:07:02;90851.16;;;19.00;nan
9935;BME280;5006;41.828;23.478;2022-07-03T01:08:13;90848.56;;;19.28;nan
9935;BME280;5006;41.828;23.478;2022-07-03T01:09:34;90851.13;;;19.35;nan
9935;BME280;5006;41.828;23.478;2022-07-03T01:10:49;90849.34;;;19.29;nan
9935;BME280;5006;41.828;23.478;2022-07-03T01:11:59;90846.34;;;19.39;nan
9935;BME280;5006;41.828;23.478;2022-07-03T01:13:09;90846.44;;;19.36;nan
9935;BME280;5006;41.828;23.478;2022-07-03T01:14:24;90854.75;;;19.45;nan
9935;BME280;5006;41.828;23.478;2022-07-03T01:15:40;90847.50;;;19.54;nan
9935;BME280;5006;41.828;23.478;2022-07-03T01:16:55;90841.91;;;19.61;nan
9935;BME280;5006;41.828;23.478;2022-07-03T01:18:08;90839.09;;;19.49;nan
9935;BME280;5006;41.828;23.478;2022-07-03T01:21:02;90850.50;;;19.12;nan
9935;BME280;5006;41.828;23.478;2022-07-03T01:22:29;90839.34;;;19.06;nan
9935;BME280;5006;41.828;23.478;2022-07-03T01:25:15;90845.47;;;18.78;nan
9935;BME280;5006;41.828;23.478;2022-07-03T01:26:24;90842.75;;;18.94;nan
9935;BME280;5006;41.828;23.478;2022-07-03T01:27:34;90844.19;;;18.99;nan
9935;BME280;5006;41.828;23.478;2022-07-03T01:28:44;90844.47;;;19.04;nan
9935;BME280;5006;41.828;23.478;2022-07-03T01:29:55;90837.31;;;18.94;nan
9935;BME280;5006;41.828;23.478;2022-07-03T01:31:02;90838.09;;;18.95;nan
9935;BME280;5006;41.828;23.478;2022-07-03T01:32:07;90830.44;;;18.90;nan
9935;BME280;5006;41.828;23.478;2022-07-03T01:33:17;90837.41;;;18.91;nan
9935;BME280;5006;41.828;23.478;2022-07-03T01:34:25;90840.97;;;18.88;nan
9935;BME280;5006;41.828;23.478;2022-07-03T01:35:35;90847.06;;;18.76;nan
9935;BME280;5006;41.828;23.478;2022-07-03T01:36:42;90846.47;;;18.33;nan
9935;BME280;5006;41.828;23.478;2022-07-03T01:37:50;90851.56;;;18.82;nan
9935;BME280;5006;41.828;23.478;2022-07-03T01:38:59;90847.59;;;19.03;nan
9935;BME280;5006;41.828;23.478;2022-07-03T01:40:08;90844.28;;;18.95;nan
9935;BME280;5006;41.828;23.478;2022-07-03T01:41:13;90847.72;;;18.64;nan
9935;BME280;5006;41.828;23.478;2022-07-03T01:42:22;90841.47;;;18.67;nan
9935;BME280;5006;41.828;23.478;2022-07-03T01:43:30;90855.34;;;19.04;nan
9935;BME280;5006;41.828;23.478;2022-07-03T01:44:38;90845.81;;;19.12;nan
9935;BME280;5006;41.828;23.478;2022-07-03T01:45:47;90850.81;;;18.98;nan
9935;BME280;5006;41.828;23.478;2022-07-03T01:46:55;90844.53;;;19.01;nan
9935;BME280;5006;41.828;23.478;2022-07-03T01:48:02;90852.88;;;19.10;nan
9935;BME280;5006;41.828;23.478;2022-07-03T01:49:11;90850.75;;;18.85;nan
9935;BME280;5006;41.828;23.478;2022-07-03T01:50:17;90851.09;;;18.87;nan
9935;BME280;5006;41.828;23.478;2022-07-03T01:51:26;90854.56;;;18.88;nan
9935;BME280;5006;41.828;23.478;2022-07-03T01:52:32;90852.16;;;18.74;nan
9935;BME280;5006;41.828;23.478;2022-07-03T01:53:44;90850.28;;;18.55;nan
9935;BME280;5006;41.828;23.478;2022-07-03T01:54:51;90845.41;;;18.27;nan
9935;BME280;5006;41.828;23.478;2022-07-03T01:55:58;90850.78;;;18.30;nan
9935;BME280;5006;41.828;23.478;2022-07-03T01:57:05;90848.88;;;18.27;nan
9935;BME280;5006;41.828;23.478;2022-07-03T01:58:12;90855.06;;;18.67;nan
9935;BME280;5006;41.828;23.478;2022-07-03T01:59:18;90851.31;;;18.77;nan
9935;BME280;5006;41.828;23.478;2022-07-03T02:00:22;90854.88;;;18.74;nan
9935;BME280;5006;41.828;23.478;2022-07-03T02:01:36;90856.00;;;18.76;nan
9935;BME280;5006;41.828;23.478;2022-07-03T02:02:49;90848.84;;;18.66;nan
9935;BME280;5006;41.828;23.478;2022-07-03T02:03:59;90853.41;;;18.69;nan
9935;BME280;5006;41.828;23.478;2022-07-03T02:05:13;90850.28;;;18.71;nan
9935;BME280;5006;41.828;23.478;2022-07-03T02:06:29;90851.47;;;18.54;nan
9935;BME280;5006;41.828;23.478;2022-07-03T02:07:47;90863.16;;;18.51;nan
9935;BME280;5006;41.828;23.478;2022-07-03T02:09:01;90853.16;;;18.64;nan
9935;BME280;5006;41.828;23.478;2022-07-03T02:10:08;90862.41;;;18.66;nan
9935;BME280;5006;41.828;23.478;2022-07-03T02:11:15;90856.19;;;18.50;nan
9935;BME280;5006;41.828;23.478;2022-07-03T02:12:27;90860.88;;;18.49;nan
9935;BME280;5006;41.828;23.478;2022-07-03T02:13:38;90857.31;;;18.52;nan
9935;BME280;5006;41.828;23.478;2022-07-03T02:14:48;90857.56;;;18.58;nan
9935;BME280;5006;41.828;23.478;2022-07-03T02:15:58;90856.97;;;18.50;nan
9935;BME280;5006;41.828;23.478;2022-07-03T02:17:11;90859.50;;;18.57;nan
9935;BME280;5006;41.828;23.478;2022-07-03T02:18:25;90863.41;;;18.56;nan
9935;BME280;5006;41.828;23.478;2022-07-03T02:19:46;90861.22;;;18.51;nan
9935;BME280;5006;41.828;23.478;2022-07-03T02:21:10;90859.34;;;18.48;nan
9935;BME280;5006;41.828;23.478;2022-07-03T02:22:20;90862.94;;;18.61;nan
9935;BME280;5006;41.828;23.478;2022-07-03T02:23:27;90867.59;;;18.61;nan
9935;BME280;5006;41.828;23.478;2022-07-03T02:24:41;90862.00;;;18.68;nan
9935;BME280;5006;41.828;23.478;2022-07-03T02:25:50;90863.72;;;18.78;nan
9935;BME280;5006;41.828;23.478;2022-07-03T02:27:01;90867.75;;;18.54;nan
9935;BME280;5006;41.828;23.478;2022-07-03T02:28:20;90867.00;;;18.34;nan
9935;BME280;5006;41.828;23.478;2022-07-03T02:29:34;90870.00;;;18.20;nan
9935;BME280;5006;41.828;23.478;2022-07-03T02:30:43;90869.94;;;18.43;nan
9935;BME280;5006;41.828;23.478;2022-07-03T02:31:57;90859.00;;;18.46;nan
9935;BME280;5006;41.828;23.478;2022-07-03T02:33:04;90868.84;;;18.56;nan
9935;BME280;5006;41.828;23.478;2022-07-03T02:34:14;90871.28;;;18.51;nan
9935;BME280;5006;41.828;23.478;2022-07-03T02:35:25;90868.22;;;18.49;nan
9935;BME280;5006;41.828;23.478;2022-07-03T02:36:31;90869.34;;;18.51;nan
9935;BME280;5006;41.828;23.478;2022-07-03T02:37:41;90868.22;;;18.49;nan
9935;BME280;5006;41.828;23.478;2022-07-03T02:38:55;90862.41;;;18.66;nan
9935;BME280;5006;41.828;23.478;2022-07-03T02:40:04;90872.28;;;18.76;nan
9935;BME280;5006;41.828;23.478;2022-07-03T02:41:15;90870.91;;;18.68;nan
9935;BME280;5006;41.828;23.478;2022-07-03T02:42:28;90870.31;;;18.61;nan
9935;BME280;5006;41.828;23.478;2022-07-03T02:43:38;90865.09;;;18.50;nan
9935;BME280;5006;41.828;23.478;2022-07-03T02:44:51;90864.19;;;18.57;nan
9935;BME280;5006;41.828;23.478;2022-07-03T02:46:03;90866.31;;;18.65;nan
9935;BME280;5006;41.828;23.478;2022-07-03T02:47:37;90864.00;;;18.48;nan
9935;BME280;5006;41.828;23.478;2022-07-03T02:48:50;90868.97;;;18.69;nan
9935;BME280;5006;41.828;23.478;2022-07-03T02:50:03;90866.28;;;19.01;nan
9935;BME280;5006;41.828;23.478;2022-07-03T02:51:13;90868.66;;;18.99;nan
9935;BME280;5006;41.828;23.478;2022-07-03T02:52:27;90871.63;;;18.88;nan
9935;BME280;5006;41.828;23.478;2022-07-03T02:53:41;90872.16;;;18.64;nan
9935;BME280;5006;41.828;23.478;2022-07-03T02:54:51;90879.72;;;18.56;nan
9935;BME280;5006;41.828;23.478;2022-07-03T02:56:05;90866.41;;;18.62;nan
9935;BME280;5006;41.828;23.478;2022-07-03T02:57:13;90879.06;;;18.68;nan
9935;BME280;5006;41.828;23.478;2022-07-03T02:58:41;90872.06;;;19.03;nan
9935;BME280;5006;41.828;23.478;2022-07-03T02:59:55;90879.22;;;19.13;nan
9935;BME280;5006;41.828;23.478;2022-07-03T03:01:07;90874.41;;;19.36;nan
9935;BME280;5006;41.828;23.478;2022-07-03T03:02:19;90876.09;;;19.30;nan
9935;BME280;5006;41.828;23.478;2022-07-03T03:03:26;90869.38;;;19.35;nan
9935;BME280;5006;41.828;23.478;2022-07-03T03:04:34;90869.03;;;19.49;nan
9935;BME280;5006;41.828;23.478;2022-07-03T03:05:46;90876.09;;;19.46;nan
9935;BME280;5006;41.828;23.478;2022-07-03T03:06:54;90876.34;;;19.36;nan
9935;BME280;5006;41.828;23.478;2022-07-03T03:08:05;90877.72;;;19.44;nan
9935;BME280;5006;41.828;23.478;2022-07-03T03:09:16;90878.47;;;19.44;nan
9935;BME280;5006;41.828;23.478;2022-07-03T03:10:23;90880.44;;;19.28;nan
9935;BME280;5006;41.828;23.478;2022-07-03T03:11:35;90877.38;;;19.42;nan
9935;BME280;5006;41.828;23.478;2022-07-03T03:12:46;90882.13;;;19.38;nan
9935;BME280;5006;41.828;23.478;2022-07-03T03:13:55;90876.94;;;19.43;nan
9935;BME280;5006;41.828;23.478;2022-07-03T03:15:04;90881.09;;;19.48;nan
9935;BME280;5006;41.828;23.478;2022-07-03T03:16:11;90878.22;;;19.23;nan
9935;BME280;5006;41.828;23.478;2022-07-03T03:17:23;90881.97;;;19.29;nan
9935;BME280;5006;41.828;23.478;2022-07-03T03:18:29;90881.78;;;19.36;nan
9935;BME280;5006;41.828;23.478;2022-07-03T03:19:39;90875.50;;;19.39;nan
9935;BME280;5006;41.828;23.478;2022-07-03T03:20:46;90888.75;;;19.53;nan
9935;BME280;5006;41.828;23.478;2022-07-03T03:21:57;90888.50;;;19.63;nan
9935;BME280;5006;41.828;23.478;2022-07-03T03:23:19;90888.38;;;19.67;nan
9935;BME280;5006;41.828;23.478;2022-07-03T03:24:27;90887.56;;;19.70;nan
9935;BME280;5006;41.828;23.478;2022-07-03T03:25:34;90890.16;;;19.73;nan
9935;BME280;5006;41.828;23.478;2022-07-03T03:26:39;90884.06;;;19.69;nan
9935;BME280;5006;41.828;23.478;2022-07-03T03:27:44;90873.31;;;19.78;nan
9935;BME280;5006;41.828;23.478;2022-07-03T03:28:51;90880.13;;;19.86;nan
9935;BME280;5006;41.828;23.478;2022-07-03T03:29:57;90874.56;;;19.89;nan
9935;BME280;5006;41.828;23.478;2022-07-03T03:31:04;90886.16;;;19.93;nan
9935;BME280;5006;41.828;23.478;2022-07-03T03:32:13;90888.25;;;20.02;nan
9935;BME280;5006;41.828;23.478;2022-07-03T03:33:19;90886.06;;;20.25;nan
9935;BME280;5006;41.828;23.478;2022-07-03T03:34:25;90890.16;;;20.17;nan
9935;BME280;5006;41.828;23.478;2022-07-03T03:35:30;90891.84;;;19.99;nan
9935;BME280;5006;41.828;23.478;2022-07-03T03:36:36;90891.03;;;19.86;nan
9935;BME280;5006;41.828;23.478;2022-07-03T03:37:43;90898.47;;;20.14;nan
9935;BME280;5006;41.828;23.478;2022-07-03T03:38:48;90892.81;;;20.21;nan
9935;BME280;5006;41.828;23.478;2022-07-03T03:39:54;90888.06;;;20.09;nan
9935;BME280;5006;41.828;23.478;2022-07-03T03:40:59;90895.81;;;20.10;nan
9935;BME280;5006;41.828;23.478;2022-07-03T03:42:05;90890.97;;;20.30;nan
9935;BME280;5006;41.828;23.478;2022-07-03T03:43:10;90888.53;;;20.48;nan
9935;BME280;5006;41.828;23.478;2022-07-03T03:44:16;90892.72;;;20.65;nan
9935;BME280;5006;41.828;23.478;2022-07-03T03:45:21;90886.59;;;20.74;nan
9935;BME280;5006;41.828;23.478;2022-07-03T03:46:29;90882.81;;;20.84;nan
9935;BME280;5006;41.828;23.478;2022-07-03T03:47:34;90890.81;;;20.91;nan
9935;BME280;5006;41.828;23.478;2022-07-03T03:48:40;90889.09;;;21.09;nan
9935;BME280;5006;41.828;23.478;2022-07-03T03:49:45;90891.59;;;21.16;nan
9935;BME280;5006;41.828;23.478;2022-07-03T03:50:51;90899.84;;;20.88;nan
9935;BME280;5006;41.828;23.478;2022-07-03T03:51:56;90889.06;;;20.84;nan
9935;BME280;5006;41.828;23.478;2022-07-03T03:53:02;90892.78;;;21.03;nan
9935;BME280;5006;41.828;23.478;2022-07-03T03:54:06;90890.06;;;21.03;nan
9935;BME280;5006;41.828;23.478;2022-07-03T03:55:13;90898.38;;;20.58;nan
9935;BME280;5006;41.828;23.478;2022-07-03T03:56:18;90903.81;;;20.58;nan
9935;BME280;5006;41.828;23.478;2022-07-03T03:57:25;90898.94;;;20.66;nan
9935;BME280;5006;41.828;23.478;2022-07-03T03:58:31;90888.38;;;20.80;nan
9935;BME280;5006;41.828;23.478;2022-07-03T03:59:38;90896.03;;;20.98;nan
9935;BME280;5006;41.828;23.478;2022-07-03T04:00:43;90899.22;;;20.96;nan
9935;BME280;5006;41.828;23.478;2022-07-03T04:01:50;90893.78;;;20.96;nan
9935;BME280;5006;41.828;23.478;2022-07-03T04:02:55;90890.72;;;21.07;nan
9935;BME280;5006;41.828;23.478;2022-07-03T04:04:01;90897.59;;;21.36;nan
9935;BME280;5006;41.828;23.478;2022-07-03T04:05:06;90889.19;;;21.31;nan
9935;BME280;5006;41.828;23.478;2022-07-03T04:06:12;90896.06;;;21.35;nan
9935;BME280;5006;41.828;23.478;2022-07-03T04:07:18;90894.94;;;21.45;nan
9935;BME280;5006;41.828;23.478;2022-07-03T04:08:24;90895.50;;;21.53;nan
9935;BME280;5006;41.828;23.478;2022-07-03T04:09:30;90891.66;;;21.75;nan
9935;BME280;5006;41.828;23.478;2022-07-03T04:10:35;90893.34;;;21.94;nan
9935;BME280;5006;41.828;23.478;2022-07-03T04:11:41;90893.28;;;22.19;nan
9935;BME280;5006;41.828;23.478;2022-07-03T04:12:46;90894.94;;;22.38;nan
9935;BME280;5006;41.828;23.478;2022-07-03T04:13:51;90897.34;;;22.48;nan
9935;BME280;5006;41.828;23.478;2022-07-03T04:14:57;90895.97;;;22.31;nan
9935;BME280;5006;41.828;23.478;2022-07-03T04:16:04;90896.06;;;22.62;nan
9935;BME280;5006;41.828;23.478;2022-07-03T04:17:10;90895.59;;;22.85;nan
9935;BME280;5006;41.828;23.478;2022-07-03T04:18:16;90894.22;;;22.80;nan
9935;BME280;5006;41.828;23.478;2022-07-03T04:19:22;90898.78;;;22.40;nan
9935;BME280;5006;41.828;23.478;2022-07-03T04:20:27;90899.31;;;22.48;nan
9935;BME280;5006;41.828;23.478;2022-07-03T04:21:32;90898.22;;;22.67;nan
9935;BME280;5006;41.828;23.478;2022-07-03T04:22:38;90900.31;;;22.84;nan
9935;BME280;5006;41.828;23.478;2022-07-03T04:23:43;90899.28;;;23.12;nan
9935;BME280;5006;41.828;23.478;2022-07-03T04:24:49;90901.88;;;23.55;nan
9935;BME280;5006;41.828;23.478;2022-07-03T04:25:55;90904.19;;;23.96;nan
9935;BME280;5006;41.828;23.478;2022-07-03T04:27:01;90898.09;;;24.01;nan
9935;BME280;5006;41.828;23.478;2022-07-03T04:28:06;90902.19;;;23.97;nan
9935;BME280;5006;41.828;23.478;2022-07-03T04:29:11;90901.97;;;23.82;nan
9935;BME280;5006;41.828;23.478;2022-07-03T04:30:16;90903.28;;;23.60;nan
9935;BME280;5006;41.828;23.478;2022-07-03T04:32:29;90906.50;;;23.28;nan
9935;BME280;5006;41.828;23.478;2022-07-03T04:33:35;90903.09;;;22.93;nan
9935;BME280;5006;41.828;23.478;2022-07-03T04:34:40;90896.78;;;23.05;nan
9935;BME280;5006;41.828;23.478;2022-07-03T04:35:45;90899.75;;;22.68;nan
9935;BME280;5006;41.828;23.478;2022-07-03T04:36:50;90907.75;;;22.84;nan
9935;BME280;5006;41.828;23.478;2022-07-03T04:37:55;90902.91;;;22.45;nan
9935;BME280;5006;41.828;23.478;2022-07-03T04:39:00;90904.47;;;22.98;nan
9935;BME280;5006;41.828;23.478;2022-07-03T04:40:07;90903.06;;;22.63;nan
9935;BME280;5006;41.828;23.478;2022-07-03T04:41:12;90900.81;;;22.92;nan
9935;BME280;5006;41.828;23.478;2022-07-03T04:42:18;90903.25;;;22.68;nan
9935;BME280;5006;41.828;23.478;2022-07-03T04:43:24;90901.47;;;22.74;nan
9935;BME280;5006;41.828;23.478;2022-07-03T04:44:29;90895.09;;;22.77;nan
9935;BME280;5006;41.828;23.478;2022-07-03T04:45:35;90901.28;;;22.69;nan
9935;BME280;5006;41.828;23.478;2022-07-03T04:46:40;90904.06;;;22.78;nan
9935;BME280;5006;41.828;23.478;2022-07-03T04:47:47;90902.84;;;22.79;nan
9935;BME280;5006;41.828;23.478;2022-07-03T04:48:52;90894.88;;;22.63;nan
9935;BME280;5006;41.828;23.478;2022-07-03T04:49:58;90895.38;;;22.49;nan
9935;BME280;5006;41.828;23.478;2022-07-03T04:51:02;90895.69;;;22.72;nan
9935;BME280;5006;41.828;23.478;2022-07-03T04:52:08;90899.94;;;22.73;nan
9935;BME280;5006;41.828;23.478;2022-07-03T04:53:14;90893.63;;;22.85;nan
9935;BME280;5006;41.828;23.478;2022-07-03T04:54:19;90893.81;;;22.91;nan
9935;BME280;5006;41.828;23.478;2022-07-03T04:55:25;90896.25;;;22.89;nan
9935;BME280;5006;41.828;23.478;2022-07-03T04:56:30;90897.22;;;23.25;nan
9935;BME280;5006;41.828;23.478;2022-07-03T04:57:36;90890.34;;;23.21;nan
9935;BME280;5006;41.828;23.478;2022-07-03T04:58:42;90895.25;;;22.74;nan
9935;BME280;5006;41.828;23.478;2022-07-03T04:59:46;90898.75;;;23.05;nan
9935;BME280;5006;41.828;23.478;2022-07-03T05:00:52;90897.00;;;23.90;nan
9935;BME280;5006;41.828;23.478;2022-07-03T05:01:58;90895.63;;;23.85;nan
9935;BME280;5006;41.828;23.478;2022-07-03T05:03:04;90898.75;;;23.75;nan
9935;BME280;5006;41.828;23.478;2022-07-03T05:04:10;90896.22;;;23.41;nan
9935;BME280;5006;41.828;23.478;2022-07-03T05:05:14;90904.31;;;23.44;nan
9935;BME280;5006;41.828;23.478;2022-07-03T05:06:22;90897.47;;;24.06;nan
9935;BME280;5006;41.828;23.478;2022-07-03T05:07:27;90893.53;;;23.59;nan
9935;BME280;5006;41.828;23.478;2022-07-03T05:08:33;90897.28;;;23.43;nan
9935;BME280;5006;41.828;23.478;2022-07-03T05:09:38;90898.78;;;23.35;nan
9935;BME280;5006;41.828;23.478;2022-07-03T05:10:43;90901.03;;;23.28;nan
9935;BME280;5006;41.828;23.478;2022-07-03T05:11:48;90893.75;;;23.73;nan
9935;BME280;5006;41.828;23.478;2022-07-03T05:12:54;90894.88;;;24.12;nan
9935;BME280;5006;41.828;23.478;2022-07-03T05:13:58;90898.22;;;23.98;nan
9935;BME280;5006;41.828;23.478;2022-07-03T05:15:05;90894.44;;;24.04;nan
9935;BME280;5006;41.828;23.478;2022-07-03T05:16:10;90897.63;;;23.94;nan
9935;BME280;5006;41.828;23.478;2022-07-03T05:17:17;90897.41;;;24.54;nan
9935;BME280;5006;41.828;23.478;2022-07-03T05:18:23;90899.78;;;24.35;nan
9935;BME280;5006;41.828;23.478;2022-07-03T05:19:29;90909.56;;;24.44;nan
9935;BME280;5006;41.828;23.478;2022-07-03T05:20:34;90900.25;;;24.42;nan
9935;BME280;5006;41.828;23.478;2022-07-03T05:21:39;90909.09;;;24.82;nan
9935;BME280;5006;41.828;23.478;2022-07-03T05:22:44;90899.66;;;24.47;nan
9935;BME280;5006;41.828;23.478;2022-07-03T05:23:50;90906.03;;;24.44;nan
9935;BME280;5006;41.828;23.478;2022-07-03T05:24:56;90892.19;;;24.83;nan
9935;BME280;5006;41.828;23.478;2022-07-03T05:26:01;90893.94;;;25.22;nan
9935;BME280;5006;41.828;23.478;2022-07-03T05:27:06;90895.19;;;25.03;nan
9935;BME280;5006;41.828;23.478;2022-07-03T05:28:11;90902.47;;;25.15;nan
9935;BME280;5006;41.828;23.478;2022-07-03T05:29:17;90899.13;;;26.03;nan
9935;BME280;5006;41.828;23.478;2022-07-03T05:30:23;90895.84;;;26.37;nan
9935;BME280;5006;41.828;23.478;2022-07-03T05:31:29;90889.22;;;26.67;nan
9935;BME280;5006;41.828;23.478;2022-07-03T05:32:34;90893.88;;;26.76;nan
9935;BME280;5006;41.828;23.478;2022-07-03T05:33:42;90893.53;;;26.83;nan
9935;BME280;5006;41.828;23.478;2022-07-03T05:34:47;90892.13;;;26.87;nan
9935;BME280;5006;41.828;23.478;2022-07-03T05:35:54;90901.56;;;27.67;nan
9935;BME280;5006;41.828;23.478;2022-07-03T05:37:00;90896.31;;;26.97;nan
9935;BME280;5006;41.828;23.478;2022-07-03T05:38:05;90894.09;;;26.25;nan
9935;BME280;5006;41.828;23.478;2022-07-03T05:39:12;90897.06;;;26.60;nan
9935;BME280;5006;41.828;23.478;2022-07-03T05:40:35;90904.34;;;27.24;nan
9935;BME280;5006;41.828;23.478;2022-07-03T05:41:40;90897.38;;;27.43;nan
9935;BME280;5006;41.828;23.478;2022-07-03T05:42:45;90894.03;;;27.68;nan
9935;BME280;5006;41.828;23.478;2022-07-03T05:43:51;90902.97;;;27.63;nan
9935;BME280;5006;41.828;23.478;2022-07-03T05:44:56;90899.91;;;27.90;nan
9935;BME280;5006;41.828;23.478;2022-07-03T05:46:03;90902.25;;;28.11;nan
9935;BME280;5006;41.828;23.478;2022-07-03T05:47:08;90904.84;;;28.35;nan
9935;BME280;5006;41.828;23.478;2022-07-03T05:48:13;90904.66;;;28.58;nan
9935;BME280;5006;41.828;23.478;2022-07-03T05:49:20;90907.69;;;29.00;nan
9935;BME280;5006;41.828;23.478;2022-07-03T05:50:25;90906.38;;;28.96;nan
9935;BME280;5006;41.828;23.478;2022-07-03T05:51:31;90903.56;;;28.70;nan
9935;BME280;5006;41.828;23.478;2022-07-03T05:52:36;90904.72;;;29.49;nan
9935;BME280;5006;41.828;23.478;2022-07-03T05:53:42;90901.13;;;28.98;nan
9935;BME280;5006;41.828;23.478;2022-07-03T05:54:47;90901.00;;;28.87;nan
9935;BME280;5006;41.828;23.478;2022-07-03T05:55:52;90902.50;;;28.88;nan
9935;BME280;5006;41.828;23.478;2022-07-03T05:56:58;90904.16;;;28.60;nan
9935;BME280;5006;41.828;23.478;2022-07-03T05:58:03;90908.72;;;29.03;nan
9935;BME280;5006;41.828;23.478;2022-07-03T05:59:09;90903.63;;;28.56;nan
9935;BME280;5006;41.828;23.478;2022-07-03T06:00:14;90909.63;;;28.74;nan
9935;BME280;5006;41.828;23.478;2022-07-03T06:01:20;90905.91;;;28.97;nan
9935;BME280;5006;41.828;23.478;2022-07-03T06:02:25;90902.72;;;28.84;nan
9935;BME280;5006;41.828;23.478;2022-07-03T06:03:31;90903.63;;;28.76;nan
9935;BME280;5006;41.828;23.478;2022-07-03T06:04:38;90904.19;;;29.00;nan
9935;BME280;5006;41.828;23.478;2022-07-03T06:05:43;90908.50;;;28.86;nan
9935;BME280;5006;41.828;23.478;2022-07-03T06:06:48;90909.47;;;28.63;nan
9935;BME280;5006;41.828;23.478;2022-07-03T06:07:53;90905.50;;;28.30;nan
9935;BME280;5006;41.828;23.478;2022-07-03T06:08:58;90902.22;;;29.31;nan
9935;BME280;5006;41.828;23.478;2022-07-03T06:10:04;90906.69;;;29.23;nan
9935;BME280;5006;41.828;23.478;2022-07-03T06:11:10;90901.56;;;28.16;nan
9935;BME280;5006;41.828;23.478;2022-07-03T06:12:15;90896.94;;;28.82;nan
9935;BME280;5006;41.828;23.478;2022-07-03T06:13:21;90897.34;;;29.71;nan
9935;BME280;5006;41.828;23.478;2022-07-03T06:14:26;90904.06;;;29.14;nan
9935;BME280;5006;41.828;23.478;2022-07-03T06:15:32;90894.97;;;29.33;nan
9935;BME280;5006;41.828;23.478;2022-07-03T06:16:37;90897.56;;;29.17;nan
9935;BME280;5006;41.828;23.478;2022-07-03T06:17:43;90899.19;;;29.80;nan
9935;BME280;5006;41.828;23.478;2022-07-03T06:18:49;90899.66;;;30.04;nan